createdAt,value
2023-05-19T00:00:02.218Z,18.76
2023-05-19T00:02:39.652Z,18.73
2023-05-19T00:05:08.402Z,18.71
2023-05-19T00:07:41.570Z,18.71
2023-05-19T00:10:09.910Z,18.65
2023-05-19T00:12:37.699Z,18.68
2023-05-19T00:15:05.713Z,18.68
2023-05-19T00:17:41.051Z,18.71
2023-05-19T00:20:09.265Z,18.72
2023-05-19T00:22:37.116Z,18.72
2023-05-19T00:25:06.275Z,18.73
2023-05-19T00:27:33.299Z,18.74
2023-05-19T00:30:00.289Z,18.73
2023-05-19T00:32:27.516Z,18.74
2023-05-19T00:34:54.476Z,18.72
2023-05-19T00:37:22.098Z,18.72
2023-05-19T00:39:49.861Z,18.71
2023-05-19T00:42:16.924Z,18.68
2023-05-19T00:44:44.021Z,18.64
2023-05-19T00:47:11.066Z,18.61
2023-05-19T00:49:38.663Z,18.59
2023-05-19T00:52:07.318Z,18.60
2023-05-19T00:54:35.161Z,18.61
2023-05-19T00:57:03.567Z,18.60
2023-05-19T00:59:38.478Z,18.61
2023-05-19T01:02:06.250Z,18.59
2023-05-19T01:04:34.993Z,18.60
2023-05-19T01:07:03.577Z,18.58
2023-05-19T01:09:32.257Z,18.55
2023-05-19T01:12:01.147Z,18.54
2023-05-19T01:14:29.773Z,18.53
2023-05-19T01:17:58.351Z,18.51
2023-05-19T01:20:36.346Z,18.45
2023-05-19T01:23:36.881Z,18.43
2023-05-19T01:26:47.460Z,18.39
2023-05-19T01:29:32.431Z,18.36
2023-05-19T01:32:00.912Z,18.36
2023-05-19T01:34:29.608Z,18.36
2023-05-19T01:36:58.408Z,18.34
2023-05-19T01:39:28.560Z,18.34
2023-05-19T01:41:58.250Z,18.34
2023-05-19T01:44:25.691Z,18.34
2023-05-19T01:46:54.949Z,18.31
2023-05-19T01:49:22.251Z,18.29
2023-05-19T01:51:49.596Z,18.28
2023-05-19T01:54:16.669Z,18.25
2023-05-19T01:57:18.810Z,18.24
2023-05-19T02:00:09.402Z,18.19
2023-05-19T02:02:59.301Z,18.18
2023-05-19T02:05:56.742Z,18.18
2023-05-19T02:08:48.384Z,18.16
2023-05-19T02:11:25.448Z,18.14
2023-05-19T02:13:56.956Z,18.13
2023-05-19T02:16:29.470Z,18.12
2023-05-19T02:18:57.371Z,18.12
2023-05-19T02:21:24.462Z,18.12
2023-05-19T02:23:51.646Z,18.11
2023-05-19T02:26:20.130Z,18.10
2023-05-19T02:28:47.135Z,18.09
2023-05-19T02:31:14.103Z,18.08
2023-05-19T02:33:41.322Z,18.04
2023-05-19T02:36:10.112Z,18.05
2023-05-19T02:38:37.693Z,18.04
2023-05-19T02:41:04.709Z,18.03
2023-05-19T02:43:31.732Z,18.02
2023-05-19T02:45:58.890Z,18.03
2023-05-19T02:48:26.922Z,18.03
2023-05-19T02:50:53.937Z,18.04
2023-05-19T02:53:20.951Z,18.04
2023-05-19T02:55:47.962Z,18.02
2023-05-19T02:58:14.940Z,18.01
2023-05-19T03:00:41.944Z,17.99
2023-05-19T03:03:10.452Z,18.00
2023-05-19T03:05:37.719Z,18.03
2023-05-19T03:08:04.869Z,18.04
2023-05-19T03:10:32.136Z,18.03
2023-05-19T03:12:59.252Z,18.02
2023-05-19T03:15:26.313Z,17.99
2023-05-19T03:17:53.385Z,17.98
2023-05-19T03:20:20.482Z,18.01
2023-05-19T03:22:47.782Z,18.01
2023-05-19T03:25:15.158Z,18.01
2023-05-19T03:27:42.567Z,18.02
2023-05-19T03:30:10.479Z,18.04
2023-05-19T03:32:52.256Z,18.05
2023-05-19T03:35:19.865Z,18.03
2023-05-19T03:37:46.956Z,18.02
2023-05-19T03:40:14.194Z,18.01
2023-05-19T03:42:43.430Z,18.01
2023-05-19T03:45:11.054Z,18.02
2023-05-19T03:47:38.328Z,18.02
2023-05-19T03:50:24.703Z,18.03
2023-05-19T03:52:55.728Z,18.01
2023-05-19T03:55:31.984Z,18.01
2023-05-19T03:57:59.038Z,18.02
2023-05-19T04:00:26.029Z,18.04
2023-05-19T04:02:53.122Z,18.05
2023-05-19T04:05:20.150Z,18.06
2023-05-19T04:07:47.154Z,18.06
2023-05-19T04:10:14.276Z,18.08
2023-05-19T04:12:41.636Z,18.07
2023-05-19T04:15:11.492Z,18.07
2023-05-19T04:17:39.165Z,18.09
2023-05-19T04:20:07.020Z,18.09
2023-05-19T04:22:34.582Z,18.08
2023-05-19T04:25:01.822Z,18.08
2023-05-19T04:27:30.151Z,18.08
2023-05-19T04:29:58.214Z,18.10
2023-05-19T04:32:25.783Z,18.09
2023-05-19T04:34:54.632Z,18.08
2023-05-19T04:37:26.391Z,18.06
2023-05-19T04:39:54.333Z,18.06
2023-05-19T04:42:26.207Z,18.05
2023-05-19T04:44:54.484Z,18.06
2023-05-19T04:47:28.345Z,18.04
2023-05-19T04:49:56.274Z,18.02
2023-05-19T04:52:23.905Z,18.01
2023-05-19T04:54:52.937Z,17.98
2023-05-19T04:57:20.396Z,17.98
2023-05-19T04:59:48.081Z,17.98
2023-05-19T05:02:16.368Z,17.98
2023-05-19T05:04:44.218Z,17.97
2023-05-19T05:07:11.413Z,17.95
2023-05-19T05:09:39.094Z,17.97
2023-05-19T05:12:08.103Z,17.95
2023-05-19T05:14:37.686Z,17.95
2023-05-19T05:17:05.235Z,17.96
2023-05-19T05:19:35.370Z,17.94
2023-05-19T05:22:02.889Z,17.95
2023-05-19T05:24:32.045Z,17.93
2023-05-19T05:27:01.444Z,17.92
2023-05-19T05:29:29.045Z,17.93
2023-05-19T05:31:56.271Z,17.90
2023-05-19T05:34:23.750Z,17.89
2023-05-19T05:36:51.116Z,17.89
2023-05-19T05:39:19.024Z,17.91
2023-05-19T05:41:46.293Z,17.92
2023-05-19T05:44:13.407Z,17.92
2023-05-19T05:46:43.864Z,17.90
2023-05-19T05:49:13.978Z,17.89
2023-05-19T05:51:51.377Z,17.90
2023-05-19T05:54:33.602Z,17.90
2023-05-19T05:57:02.740Z,17.91
2023-05-19T05:59:30.172Z,17.90
2023-05-19T06:01:57.291Z,17.90
2023-05-19T06:04:40.846Z,17.90
2023-05-19T06:07:08.443Z,17.88
2023-05-19T06:09:37.987Z,17.87
2023-05-19T06:12:06.935Z,17.88
2023-05-19T06:14:43.196Z,17.88
2023-05-19T06:17:22.780Z,17.88
2023-05-19T06:19:55.115Z,17.89
2023-05-19T06:22:22.834Z,17.91
2023-05-19T06:24:50.490Z,17.90
2023-05-19T06:27:19.829Z,17.90
2023-05-19T06:29:48.417Z,17.91
2023-05-19T06:32:20.848Z,17.92
2023-05-19T06:34:55.058Z,17.92
2023-05-19T06:37:23.487Z,17.92
2023-05-19T06:40:04.274Z,17.92
2023-05-19T06:42:34.590Z,17.91
2023-05-19T06:45:29.900Z,17.88
2023-05-19T06:48:00.769Z,17.87
2023-05-19T06:50:30.013Z,17.86
2023-05-19T06:53:03.069Z,17.85
2023-05-19T06:56:26.403Z,17.84
2023-05-19T06:58:56.318Z,17.84
2023-05-19T07:01:30.403Z,17.84
2023-05-19T07:03:58.826Z,17.86
2023-05-19T07:06:50.980Z,17.88
2023-05-19T07:09:29.740Z,17.88
2023-05-19T07:11:57.984Z,17.90
2023-05-19T07:14:25.347Z,17.91
2023-05-19T07:16:52.630Z,17.94
2023-05-19T07:19:20.044Z,17.95
2023-05-19T07:21:51.197Z,17.93
2023-05-19T07:24:18.385Z,17.94
2023-05-19T07:26:54.836Z,17.94
2023-05-19T07:29:21.976Z,17.94
2023-05-19T07:31:54.175Z,17.93
2023-05-19T07:34:22.006Z,17.93
2023-05-19T07:36:49.167Z,17.92
2023-05-19T07:39:27.941Z,17.93
2023-05-19T07:41:57.692Z,17.93
2023-05-19T07:44:46.785Z,17.86
2023-05-19T07:47:14.662Z,17.86
2023-05-19T07:52:27.722Z,17.86
2023-05-19T07:54:54.834Z,17.87
2023-05-19T07:57:22.357Z,17.86
2023-05-19T07:59:49.641Z,17.84
2023-05-19T08:02:16.763Z,17.83
2023-05-19T08:04:45.981Z,17.86
2023-05-19T08:07:16.364Z,17.88
2023-05-19T08:09:43.574Z,17.90
2023-05-19T08:12:10.626Z,17.90
2023-05-19T08:14:38.835Z,17.92
2023-05-19T08:17:06.324Z,17.94
2023-05-19T08:19:33.425Z,17.97
2023-05-19T08:22:03.699Z,17.99
2023-05-19T08:24:47.021Z,18.02
2023-05-19T08:27:34.765Z,17.98
2023-05-19T08:30:02.459Z,18.02
2023-05-19T08:32:30.248Z,18.04
2023-05-19T08:34:57.782Z,18.07
2023-05-19T08:37:24.816Z,18.10
2023-05-19T08:39:51.863Z,18.13
2023-05-19T08:42:18.906Z,18.11
2023-05-19T08:44:45.949Z,18.15
2023-05-19T08:47:14.351Z,18.16
2023-05-19T08:49:47.430Z,18.17
2023-05-19T08:52:18.227Z,18.17
2023-05-19T08:55:01.124Z,18.21
2023-05-19T08:57:29.227Z,18.20
2023-05-19T08:59:57.050Z,18.24
2023-05-19T09:02:24.649Z,18.28
2023-05-19T09:04:53.365Z,18.28
2023-05-19T09:07:21.972Z,18.30
2023-05-19T09:09:50.367Z,18.35
2023-05-19T09:12:17.616Z,18.36
2023-05-19T09:14:44.754Z,18.37
2023-05-19T09:17:12.059Z,18.37
2023-05-19T09:19:44.473Z,18.32
2023-05-19T09:22:12.071Z,18.25
2023-05-19T09:24:40.522Z,18.28
2023-05-19T09:27:08.477Z,18.33
2023-05-19T09:29:35.636Z,18.34
2023-05-19T09:32:05.197Z,18.36
2023-05-19T09:34:32.416Z,18.40
2023-05-19T09:37:14.213Z,18.40
2023-05-19T09:39:41.304Z,18.37
2023-05-19T09:42:08.453Z,18.36
2023-05-19T09:44:38.129Z,18.33
2023-05-19T09:47:05.362Z,18.33
2023-05-19T09:49:33.008Z,18.28
2023-05-19T09:52:06.659Z,18.26
2023-05-19T09:54:34.721Z,18.26
2023-05-19T09:57:07.056Z,18.27
2023-05-19T09:59:36.628Z,18.31
2023-05-19T10:02:03.975Z,18.35
2023-05-19T10:04:31.896Z,18.38
2023-05-19T10:06:59.923Z,18.38
2023-05-19T10:09:47.523Z,18.41
2023-05-19T10:12:15.206Z,18.40
2023-05-19T10:14:42.464Z,18.44
2023-05-19T10:17:10.500Z,18.43
2023-05-19T10:19:38.818Z,18.45
2023-05-19T10:22:13.193Z,18.48
2023-05-19T10:24:40.627Z,18.51
2023-05-19T10:27:14.838Z,18.53
2023-05-19T10:29:49.269Z,18.53
2023-05-19T10:32:35.573Z,18.50
2023-05-19T10:35:33.281Z,18.47
2023-05-19T10:38:43.027Z,18.48
2023-05-19T10:41:48.295Z,18.44
2023-05-19T10:45:05.143Z,18.46
2023-05-19T10:47:33.737Z,18.49
2023-05-19T10:50:01.497Z,18.49
2023-05-19T10:52:31.078Z,18.50
2023-05-19T10:54:58.566Z,18.50
2023-05-19T10:57:32.188Z,18.45
2023-05-19T11:00:14.346Z,18.42
2023-05-19T11:02:44.130Z,18.41
2023-05-19T11:05:18.544Z,18.42
2023-05-19T11:07:57.259Z,18.40
2023-05-19T11:10:24.641Z,18.38
2023-05-19T11:12:52.319Z,18.37
2023-05-19T11:15:27.545Z,18.37
2023-05-19T11:17:55.386Z,18.34
2023-05-19T11:20:24.789Z,18.29
2023-05-19T11:23:06.091Z,18.32
2023-05-19T11:25:53.964Z,18.32
2023-05-19T11:28:29.343Z,18.25
2023-05-19T11:30:59.223Z,18.22
2023-05-19T11:33:30.206Z,18.18
2023-05-19T11:36:00.597Z,18.16
2023-05-19T11:38:30.194Z,18.18
2023-05-19T11:40:58.369Z,18.22
2023-05-19T11:43:26.666Z,18.24
2023-05-19T11:45:55.980Z,18.21
2023-05-19T11:48:25.435Z,18.24
2023-05-19T11:50:52.828Z,18.22
2023-05-19T11:53:23.337Z,18.14
2023-05-19T11:55:51.305Z,18.15
2023-05-19T11:58:27.024Z,18.15
2023-05-19T12:00:54.628Z,18.11
2023-05-19T12:03:26.578Z,18.13
2023-05-19T12:05:54.694Z,18.11
2023-05-19T12:08:27.815Z,18.14
2023-05-19T12:10:56.270Z,18.14
2023-05-19T12:13:23.496Z,18.12
2023-05-19T12:15:53.723Z,18.12
2023-05-19T12:18:21.327Z,18.08
2023-05-19T12:20:48.726Z,18.08
2023-05-19T12:23:16.645Z,18.08
2023-05-19T12:25:47.583Z,18.09
2023-05-19T12:28:17.011Z,18.08
2023-05-19T12:30:48.827Z,18.09
2023-05-19T12:33:16.665Z,18.13
2023-05-19T12:35:44.638Z,18.14
2023-05-19T12:38:12.074Z,18.12
2023-05-19T12:40:44.343Z,18.11
2023-05-19T12:43:23.230Z,18.11
2023-05-19T12:45:50.482Z,18.11
2023-05-19T12:48:18.065Z,18.12
2023-05-19T12:50:45.349Z,18.12
2023-05-19T12:53:13.539Z,18.09
2023-05-19T12:55:46.177Z,18.10
2023-05-19T12:58:15.998Z,18.12
2023-05-19T13:00:47.466Z,18.14
2023-05-19T13:03:18.177Z,18.16
2023-05-19T13:05:48.911Z,18.20
2023-05-19T13:08:34.021Z,18.22
2023-05-19T13:11:02.292Z,18.20
2023-05-19T13:13:29.984Z,18.19
2023-05-19T13:15:57.088Z,18.17
2023-05-19T13:18:24.613Z,18.17
2023-05-19T13:20:55.293Z,18.15
2023-05-19T13:23:22.396Z,18.15
2023-05-19T13:25:50.908Z,18.16
2023-05-19T13:28:18.482Z,18.13
2023-05-19T13:30:46.306Z,18.11
2023-05-19T13:33:13.583Z,18.11
2023-05-19T13:35:40.908Z,18.11
2023-05-19T13:38:10.316Z,18.08
2023-05-19T13:40:40.773Z,18.04
2023-05-19T13:43:08.852Z,18.05
2023-05-19T13:45:36.568Z,18.01
2023-05-19T13:48:04.164Z,18.00
2023-05-19T13:50:31.408Z,18.01
2023-05-19T13:52:59.082Z,18.05
2023-05-19T13:55:27.582Z,18.05
2023-05-19T13:57:55.636Z,18.08
2023-05-19T14:00:23.177Z,18.12
2023-05-19T14:02:50.354Z,18.09
2023-05-19T14:05:17.569Z,18.05
2023-05-19T14:07:44.826Z,18.03
2023-05-19T14:10:12.513Z,18.03
2023-05-19T14:12:49.371Z,18.06
2023-05-19T14:15:20.541Z,18.03
2023-05-19T14:17:49.168Z,18.02
2023-05-19T14:20:17.556Z,18.08
2023-05-19T14:22:47.249Z,18.11
2023-05-19T14:25:14.352Z,18.14
2023-05-19T14:27:41.376Z,18.15
2023-05-19T14:30:11.580Z,18.17
2023-05-19T14:32:38.933Z,18.18
2023-05-19T14:35:06.763Z,18.14
2023-05-19T14:37:34.349Z,18.16
2023-05-19T14:40:02.384Z,18.15
2023-05-19T14:42:29.621Z,18.16
2023-05-19T14:44:56.778Z,18.17
2023-05-19T14:47:25.654Z,18.12
2023-05-19T14:49:53.534Z,18.12
2023-05-19T14:52:21.227Z,18.11
2023-05-19T14:54:52.068Z,18.12
2023-05-19T14:57:19.657Z,18.06
2023-05-19T14:59:47.264Z,18.07
2023-05-19T15:02:16.552Z,18.05
2023-05-19T15:04:43.638Z,17.99
2023-05-19T15:07:11.272Z,18.01
2023-05-19T15:09:39.734Z,18.01
2023-05-19T15:12:06.782Z,18.01
2023-05-19T15:14:33.882Z,18.03
2023-05-19T15:17:01.889Z,18.05
2023-05-19T15:19:29.490Z,18.05
2023-05-19T15:21:56.777Z,18.05
2023-05-19T15:24:24.420Z,18.09
2023-05-19T15:26:52.553Z,18.09
2023-05-19T15:29:20.017Z,18.07
2023-05-19T15:31:51.876Z,18.07
2023-05-19T15:34:23.187Z,18.07
2023-05-19T15:36:50.511Z,18.07
2023-05-19T15:39:18.060Z,18.08
2023-05-19T15:41:45.236Z,17.99
2023-05-19T15:44:12.550Z,17.95
2023-05-19T15:46:39.699Z,17.92
2023-05-19T15:49:07.857Z,17.90
2023-05-19T15:51:35.806Z,17.87
2023-05-19T15:54:03.998Z,17.83
2023-05-19T15:56:31.599Z,17.83
2023-05-19T15:58:59.106Z,17.82
2023-05-19T16:01:27.180Z,17.76
2023-05-19T16:03:55.077Z,17.75
2023-05-19T16:06:22.404Z,17.67
2023-05-19T16:09:05.511Z,17.69
2023-05-19T16:11:32.648Z,17.68
2023-05-19T16:13:59.824Z,17.67
2023-05-19T16:16:27.007Z,17.67
2023-05-19T16:18:54.422Z,17.64
2023-05-19T16:21:22.446Z,17.67
2023-05-19T16:23:49.637Z,17.67
2023-05-19T16:26:16.880Z,17.68
2023-05-19T16:28:44.066Z,17.67
2023-05-19T16:31:11.373Z,17.60
2023-05-19T16:33:38.509Z,17.60
2023-05-19T16:36:07.594Z,17.57
2023-05-19T16:38:34.856Z,17.56
2023-05-19T16:41:03.689Z,17.59
2023-05-19T16:43:33.514Z,17.62
2023-05-19T16:46:03.575Z,17.67
2023-05-19T16:48:31.033Z,17.60
2023-05-19T16:50:58.204Z,17.61
2023-05-19T16:53:25.322Z,17.63
2023-05-19T16:55:55.484Z,17.64
2023-05-19T16:58:22.875Z,17.64
2023-05-19T17:00:53.739Z,17.64
2023-05-19T17:03:21.012Z,17.60
2023-05-19T17:05:52.975Z,17.61
2023-05-19T17:08:20.914Z,17.61
2023-05-19T17:10:48.120Z,17.60
2023-05-19T17:13:15.233Z,17.58
2023-05-19T17:15:43.371Z,17.58
2023-05-19T17:18:12.620Z,17.51
2023-05-19T17:20:39.821Z,17.51
2023-05-19T17:23:07.241Z,17.54
2023-05-19T17:25:34.787Z,17.55
2023-05-19T17:28:01.967Z,17.49
2023-05-19T17:30:29.154Z,17.47
2023-05-19T17:32:59.005Z,17.45
2023-05-19T17:35:28.298Z,17.45
2023-05-19T17:37:55.637Z,17.45
2023-05-19T17:40:22.711Z,17.43
2023-05-19T17:42:50.323Z,17.42
2023-05-19T17:45:17.790Z,17.39
2023-05-19T17:47:44.834Z,17.40
2023-05-19T17:50:11.984Z,17.40
2023-05-19T17:52:40.882Z,17.39
2023-05-19T17:55:09.608Z,17.36
2023-05-19T17:57:39.927Z,17.35
2023-05-19T18:00:10.652Z,17.34
2023-05-19T18:02:39.673Z,17.32
2023-05-19T18:05:07.809Z,17.30
2023-05-19T18:07:41.275Z,17.28
2023-05-19T18:10:11.263Z,17.27
2023-05-19T18:12:38.440Z,17.26
2023-05-19T18:15:06.732Z,17.24
2023-05-19T18:17:33.930Z,17.19
2023-05-19T18:20:04.170Z,17.17
2023-05-19T18:22:31.525Z,17.18
2023-05-19T18:24:58.682Z,17.17
2023-05-19T18:27:27.847Z,17.16
2023-05-19T18:29:54.989Z,17.15
2023-05-19T18:32:22.043Z,17.14
2023-05-19T18:34:51.003Z,17.09
2023-05-19T18:37:18.341Z,17.09
2023-05-19T18:39:47.477Z,17.12
2023-05-19T18:42:14.580Z,17.14
2023-05-19T18:44:42.330Z,17.15
2023-05-19T18:47:09.715Z,17.16
2023-05-19T18:49:36.868Z,17.15
2023-05-19T18:52:04.268Z,17.15
2023-05-19T18:54:32.599Z,17.14
2023-05-19T18:57:07.238Z,17.13
2023-05-19T18:59:35.082Z,17.15
2023-05-19T19:02:05.358Z,17.15
2023-05-19T19:04:33.603Z,17.16
2023-05-19T19:07:01.372Z,17.16
2023-05-19T19:09:28.710Z,17.16
2023-05-19T19:11:55.874Z,17.15
2023-05-19T19:14:23.117Z,17.14
2023-05-19T19:16:50.249Z,17.14
2023-05-19T19:19:17.382Z,17.14
2023-05-19T19:21:48.751Z,17.14
2023-05-19T19:24:16.087Z,17.12
2023-05-19T19:26:43.216Z,17.09
2023-05-19T19:29:10.392Z,17.08
2023-05-19T19:31:37.771Z,17.04
2023-05-19T19:34:09.194Z,17.04
2023-05-19T19:36:36.572Z,17.04
2023-05-19T19:39:03.732Z,17.02
2023-05-19T19:41:32.267Z,17.01
2023-05-19T19:43:59.463Z,16.97
2023-05-19T19:46:26.718Z,16.97
2023-05-19T19:48:58.190Z,16.97
2023-05-19T19:51:25.395Z,16.97
2023-05-19T19:53:52.725Z,16.94
2023-05-19T19:56:23.658Z,16.93
2023-05-19T19:58:51.402Z,16.93
2023-05-19T20:01:23.556Z,16.95
2023-05-19T20:03:52.026Z,16.96
2023-05-19T20:06:19.354Z,16.97
2023-05-19T20:08:52.482Z,16.98
2023-05-19T20:11:22.977Z,16.97
2023-05-19T20:13:50.487Z,16.98
2023-05-19T20:16:17.585Z,16.96
2023-05-19T20:18:45.192Z,16.96
2023-05-19T20:21:13.408Z,16.92
2023-05-19T20:23:40.827Z,16.91
2023-05-19T20:26:13.038Z,16.90
2023-05-19T20:29:13.412Z,16.89
2023-05-19T20:31:42.418Z,16.88
2023-05-19T20:34:09.771Z,16.88
2023-05-19T20:36:37.061Z,16.87
2023-05-19T20:39:11.680Z,16.88
2023-05-19T20:41:38.897Z,16.90
2023-05-19T20:44:06.542Z,16.89
2023-05-19T20:46:34.034Z,16.88
2023-05-19T20:49:01.809Z,16.90
2023-05-19T20:51:29.265Z,16.90
2023-05-19T20:54:05.522Z,16.91
2023-05-19T20:56:33.030Z,16.94
2023-05-19T20:59:00.068Z,16.97
2023-05-19T21:01:28.374Z,16.97
2023-05-19T21:03:58.114Z,16.98
2023-05-19T21:06:25.217Z,17.01
2023-05-19T21:08:52.263Z,17.02
2023-05-19T21:11:21.678Z,17.01
2023-05-19T21:13:50.195Z,17.01
2023-05-19T21:16:17.272Z,17.01
2023-05-19T21:18:44.444Z,17.01
2023-05-19T21:21:11.928Z,17.01
2023-05-19T21:23:38.964Z,17.00
2023-05-19T21:26:07.419Z,16.98
2023-05-19T21:28:34.824Z,16.97
2023-05-19T21:31:05.438Z,16.97
2023-05-19T21:33:47.940Z,16.97
2023-05-19T21:36:45.796Z,16.96
2023-05-19T21:39:18.665Z,16.96
2023-05-19T21:42:00.083Z,16.96
2023-05-19T21:44:34.271Z,16.96
2023-05-19T21:47:01.967Z,16.94
2023-05-19T21:49:29.978Z,16.94
2023-05-19T21:51:57.373Z,16.92
2023-05-19T21:54:24.668Z,16.92
2023-05-19T21:56:56.119Z,16.96
2023-05-19T21:59:24.821Z,16.95
2023-05-19T22:01:52.525Z,16.96
2023-05-19T22:04:21.325Z,16.97
2023-05-19T22:06:48.637Z,16.96
2023-05-19T22:09:16.771Z,16.97
2023-05-19T22:11:44.132Z,16.99
2023-05-19T22:14:11.646Z,17.01
2023-05-19T22:16:40.569Z,17.00
2023-05-19T22:19:08.201Z,16.97
2023-05-19T22:21:35.633Z,16.97
2023-05-19T22:24:05.266Z,16.97
2023-05-19T22:26:35.893Z,16.95
2023-05-19T22:29:06.259Z,16.94
2023-05-19T22:31:33.311Z,16.91
2023-05-19T22:34:00.846Z,16.92
2023-05-19T22:36:28.420Z,16.91
2023-05-19T22:38:55.696Z,16.93
2023-05-19T22:41:23.831Z,16.93
2023-05-19T22:43:50.920Z,16.95
2023-05-19T22:46:17.954Z,16.97
2023-05-19T22:48:45.761Z,16.97
2023-05-19T22:51:14.045Z,16.96
2023-05-19T22:53:42.795Z,16.95
2023-05-19T22:56:09.752Z,16.93
2023-05-19T22:58:40.596Z,16.94
2023-05-19T23:01:08.930Z,16.94
2023-05-19T23:03:36.187Z,16.94
2023-05-19T23:06:03.248Z,16.93
2023-05-19T23:08:30.389Z,16.92
2023-05-19T23:11:01.127Z,16.93
2023-05-19T23:13:28.495Z,16.92
2023-05-19T23:15:55.524Z,16.93
2023-05-19T23:18:22.645Z,16.93
2023-05-19T23:21:06.584Z,16.94
2023-05-19T23:23:35.875Z,16.96
2023-05-19T23:26:03.761Z,16.97
2023-05-19T23:28:30.851Z,16.98
2023-05-19T23:30:57.997Z,17.02
2023-05-19T23:33:24.994Z,17.03
2023-05-19T23:35:51.982Z,17.03
2023-05-19T23:38:18.938Z,17.06
2023-05-19T23:40:45.977Z,17.05
2023-05-19T23:43:13.244Z,17.03
2023-05-19T23:45:40.286Z,17.03
2023-05-19T23:48:07.352Z,17.02
2023-05-19T23:50:34.823Z,17.03
2023-05-19T23:53:01.939Z,17.03
2023-05-19T23:55:28.935Z,17.03
2023-05-19T23:57:55.919Z,17.04
